Time;durP1;ratioP1;P1;durP2;ratioP2;P2;SDS_P1;SDS_P2;PMS_P1;PMS_P2;Temp;Humidity;BMP_temperature;BMP_pressure;BME280_temperature;BME280_humidity;BME280_pressure;Samples;Min_cycle;Max_cycle;Signal;HPM_P1;HPM_P2
2022/02/09 00:07:39;;;;;;;12.43;9.65;;;;;;;;;;5022241;28;20183;-90
2022/02/09 00:10:06;;;;;;;12.48;10.10;;;;;;;;;;5035466;28;20178;-89
2022/02/09 00:12:39;;;;;;;12.80;11.00;;;;;;;;;;5022170;28;20190;-90
2022/02/09 00:30:50;;;;;;;14.40;12.60;;;;;;;;;;5024227;28;20274;-89
2022/02/09 00:36:51;;;;;;;17.20;11.68;;;;;;;;;;4954155;28;20199;-91
2022/02/09 00:39:38;;;;;;;17.98;11.43;;;;;;;;;;4962344;28;20216;-91
2022/02/09 01:57:35;;;;;;;14.75;10.82;;;;;;;;;;4932383;29;20259;-90
2022/02/09 02:00:01;;;;;;;15.80;11.23;;;;;;;;;;4923110;29;20196;-90
2022/02/09 02:02:27;;;;;;;14.82;11.60;;;;;;;;;;4928250;29;20249;-90
2022/02/09 02:04:53;;;;;;;13.55;11.20;;;;;;;;;;4943705;28;20193;-91
2022/02/09 02:07:30;;;;;;;12.82;9.60;;;;;;;;;;4943537;29;20209;-90
2022/02/09 02:10:06;;;;;;;13.63;9.75;;;;;;;;;;4943810;28;20283;-90
2022/02/09 02:12:36;;;;;;;13.38;10.73;;;;;;;;;;4943072;29;20212;-90
2022/02/09 02:15:29;;;;;;;13.30;11.10;;;;;;;;;;4943000;29;20182;-88
2022/02/09 02:17:50;;;;;;;14.40;9.68;;;;;;;;;;4943390;29;20663;-89
2022/02/09 02:20:32;;;;;;;12.75;9.80;;;;;;;;;;4946431;29;20185;-90
2022/02/09 02:23:26;;;;;;;14.93;10.02;;;;;;;;;;4946583;29;20213;-88
2022/02/09 02:28:48;;;;;;;18.23;10.07;;;;;;;;;;5023820;28;20566;-89
2022/02/09 02:31:42;;;;;;;11.63;9.52;;;;;;;;;;5047757;28;20190;-88
2022/02/09 02:34:44;;;;;;;10.98;9.02;;;;;;;;;;5015969;28;20198;-88
2022/02/09 02:59:18;;;;;;;13.38;8.82;;;;;;;;;;5023752;28;20209;-89
2022/02/09 03:17:58;;;;;;;11.90;8.88;;;;;;;;;;5010677;28;20197;-88
2022/02/09 03:20:33;;;;;;;13.73;9.18;;;;;;;;;;5036370;28;20217;-89
2022/02/09 03:23:13;;;;;;;12.02;8.55;;;;;;;;;;5031506;28;20209;-87
2022/02/09 03:26:06;;;;;;;12.68;9.05;;;;;;;;;;5023083;28;20177;-90
2022/02/09 03:53:58;;;;;;;9.40;7.10;;;;;;;;;;5045669;28;20181;-86
2022/02/09 03:56:31;;;;;;;10.98;6.50;;;;;;;;;;5050680;28;20216;-88
2022/02/09 03:58:57;;;;;;;8.65;7.60;;;;;;;;;;5052359;28;20209;-89
2022/02/09 04:01:27;;;;;;;11.27;7.30;;;;;;;;;;5040926;28;20205;-88
2022/02/09 04:03:53;;;;;;;10.48;7.40;;;;;;;;;;5056471;28;20653;-88
2022/02/09 04:06:19;;;;;;;9.90;6.97;;;;;;;;;;5044477;28;20185;-88
2022/02/09 04:08:54;;;;;;;8.48;6.60;;;;;;;;;;5042915;28;20184;-88
2022/02/09 04:11:27;;;;;;;7.75;6.32;;;;;;;;;;5070449;28;20288;-88
2022/02/09 04:14:04;;;;;;;9.32;7.63;;;;;;;;;;5047318;28;20184;-90
2022/02/09 04:19:11;;;;;;;8.82;6.32;;;;;;;;;;5060697;28;20189;-83
2022/02/09 04:51:22;;;;;;;9.73;6.18;;;;;;;;;;5001354;28;20580;-88
2022/02/09 05:28:03;;;;;;;9.70;5.25;;;;;;;;;;5017219;28;20190;-88
2022/02/09 05:30:29;;;;;;;8.73;5.40;;;;;;;;;;5026226;28;20174;-87
2022/02/09 05:32:55;;;;;;;6.63;4.82;;;;;;;;;;5041557;28;20197;-87
2022/02/09 05:35:22;;;;;;;7.80;6.03;;;;;;;;;;5035386;28;24512;-87
2022/02/09 05:37:52;;;;;;;7.05;5.70;;;;;;;;;;5054541;28;20236;-86
2022/02/09 05:40:18;;;;;;;6.68;5.53;;;;;;;;;;5032837;28;20214;-87
2022/02/09 05:42:44;;;;;;;6.10;4.95;;;;;;;;;;5024193;28;20225;-88
2022/02/09 05:45:11;;;;;;;6.53;5.20;;;;;;;;;;5024892;28;20197;-88
2022/02/09 05:48:25;;;;;;;6.88;5.13;;;;;;;;;;5054817;28;20186;-88
2022/02/09 05:50:57;;;;;;;9.35;5.15;;;;;;;;;;5026057;28;21207;-88
2022/02/09 05:53:36;;;;;;;5.00;4.60;;;;;;;;;;5021910;28;20183;-88
2022/02/09 05:56:08;;;;;;;7.15;5.50;;;;;;;;;;5022465;28;20170;-87
2022/02/09 05:58:38;;;;;;;6.70;5.68;;;;;;;;;;5055792;28;20177;-88
2022/02/09 06:01:05;;;;;;;8.73;5.07;;;;;;;;;;5029374;28;20188;-88
2022/02/09 06:03:31;;;;;;;11.10;6.18;;;;;;;;;;5032361;28;20179;-89
2022/02/09 06:05:57;;;;;;;10.60;6.45;;;;;;;;;;5025531;28;20202;-88
2022/02/09 06:08:24;;;;;;;7.60;5.60;;;;;;;;;;5021743;28;20179;-89
2022/02/09 06:11:04;;;;;;;9.77;6.05;;;;;;;;;;5010016;28;20418;-88
2022/02/09 06:19:40;;;;;;;7.78;5.00;;;;;;;;;;5029652;28;20197;-88
2022/02/09 06:21:44;;;;;;;8.35;5.95;;;;;;;;;;5014405;28;20220;-88
2022/02/09 06:24:10;;;;;;;8.35;5.40;;;;;;;;;;5031503;28;20210;-88
2022/02/09 06:26:36;;;;;;;9.60;5.83;;;;;;;;;;5038515;28;20190;-88
2022/02/09 06:29:02;;;;;;;6.67;4.63;;;;;;;;;;5024851;28;20410;-86
2022/02/09 06:31:31;;;;;;;7.65;5.35;;;;;;;;;;5025580;28;20417;-88
2022/02/09 06:33:57;;;;;;;9.68;6.00;;;;;;;;;;5017124;28;20187;-90
2022/02/09 06:36:25;;;;;;;7.60;5.25;;;;;;;;;;5029595;28;20198;-90
2022/02/09 06:38:52;;;;;;;7.10;4.70;;;;;;;;;;5028599;28;20272;-90
2022/02/09 06:41:18;;;;;;;7.10;5.55;;;;;;;;;;5030597;28;20206;-90
2022/02/09 06:43:44;;;;;;;12.45;5.70;;;;;;;;;;5048254;28;20209;-91
2022/02/09 06:46:10;;;;;;;7.50;5.30;;;;;;;;;;5023938;28;20274;-89
2022/02/09 06:48:36;;;;;;;8.65;5.90;;;;;;;;;;5023412;28;20214;-91
2022/02/09 06:51:12;;;;;;;6.38;5.78;;;;;;;;;;5028352;28;20186;-88
2022/02/09 06:53:48;;;;;;;11.27;6.45;;;;;;;;;;5040146;28;20178;-89
2022/02/09 06:56:24;;;;;;;5.90;5.15;;;;;;;;;;5050330;28;20174;-90
2022/02/09 06:59:09;;;;;;;7.78;6.53;;;;;;;;;;5030249;28;20179;-91
2022/02/09 07:01:35;;;;;;;9.43;5.25;;;;;;;;;;5024178;28;20221;-91
2022/02/09 07:04:01;;;;;;;7.97;5.55;;;;;;;;;;5020445;28;20193;-91
2022/02/09 07:06:27;;;;;;;7.97;5.85;;;;;;;;;;5023422;28;20183;-85
2022/02/09 07:08:53;;;;;;;6.55;5.80;;;;;;;;;;5037205;28;20259;-89
2022/02/09 07:11:19;;;;;;;12.60;7.43;;;;;;;;;;5038674;28;21224;-90
2022/02/09 07:13:45;;;;;;;9.43;6.53;;;;;;;;;;5016131;28;20193;-87
2022/02/09 07:16:11;;;;;;;7.95;6.20;;;;;;;;;;5022686;28;20748;-87
2022/02/09 07:18:37;;;;;;;9.13;6.50;;;;;;;;;;5022811;28;20283;-87
2022/02/09 07:21:13;;;;;;;9.60;6.40;;;;;;;;;;5023809;28;20181;-86
2022/02/09 07:23:46;;;;;;;8.38;6.05;;;;;;;;;;5029077;28;20189;-87
2022/02/09 07:26:17;;;;;;;12.52;6.55;;;;;;;;;;5051705;28;20682;-87
2022/02/09 07:28:43;;;;;;;12.00;6.38;;;;;;;;;;5017308;28;20242;-85
2022/02/09 07:31:10;;;;;;;12.25;6.15;;;;;;;;;;5056583;28;20185;-86
2022/02/09 07:33:37;;;;;;;11.50;7.28;;;;;;;;;;5016159;28;20202;-85
2022/02/09 07:36:04;;;;;;;10.25;7.13;;;;;;;;;;5016897;28;20183;-84
2022/02/09 07:38:30;;;;;;;12.20;8.10;;;;;;;;;;5054718;28;20218;-85
2022/02/09 07:40:59;;;;;;;8.38;6.60;;;;;;;;;;5032500;28;20190;-86
2022/02/09 07:43:37;;;;;;;11.73;7.38;;;;;;;;;;5047040;28;20342;-85
2022/02/09 07:54:00;;;;;;;8.13;6.25;;;;;;;;;;5010917;28;20208;-83
2022/02/09 07:56:30;;;;;;;9.68;6.40;;;;;;;;;;5033713;28;20989;-85
2022/02/09 07:58:56;;;;;;;10.02;7.07;;;;;;;;;;5042597;28;20205;-85
2022/02/09 08:01:23;;;;;;;9.48;6.10;;;;;;;;;;5021825;28;20205;-85
2022/02/09 08:03:49;;;;;;;8.43;6.53;;;;;;;;;;5024904;28;20182;-84
2022/02/09 08:06:17;;;;;;;10.27;6.60;;;;;;;;;;5033619;28;20532;-84
2022/02/09 08:08:45;;;;;;;12.38;7.45;;;;;;;;;;5023880;28;20193;-84
2022/02/09 08:30:20;;;;;;;21.83;13.77;;;;;;;;;;5010290;28;20547;-85
2022/02/09 08:35:01;;;;;;;14.38;8.95;;;;;;;;;;5008232;28;20183;-85
2022/02/09 08:37:27;;;;;;;9.95;7.88;;;;;;;;;;5011944;28;20179;-85
2022/02/09 08:39:55;;;;;;;12.15;9.82;;;;;;;;;;5030971;28;20230;-85
2022/02/09 08:42:21;;;;;;;11.27;9.10;;;;;;;;;;5025936;28;20222;-85
2022/02/09 08:44:47;;;;;;;11.13;9.00;;;;;;;;;;5028667;28;20281;-85
2022/02/09 08:47:13;;;;;;;11.77;7.82;;;;;;;;;;5026145;28;20183;-85
2022/02/09 08:49:39;;;;;;;9.60;7.50;;;;;;;;;;5010267;28;20202;-86
2022/02/09 08:52:06;;;;;;;11.48;8.20;;;;;;;;;;5030150;28;20191;-85
2022/02/09 08:54:32;;;;;;;16.45;9.10;;;;;;;;;;5030584;28;20175;-86
2022/02/09 08:57:02;;;;;;;12.77;8.40;;;;;;;;;;5029677;28;20187;-87
2022/02/09 08:59:29;;;;;;;11.68;8.13;;;;;;;;;;5041976;28;20213;-86
2022/02/09 09:02:00;;;;;;;13.00;8.85;;;;;;;;;;5012114;28;20195;-86
2022/02/09 09:04:34;;;;;;;14.10;9.52;;;;;;;;;;5026677;28;20240;-87
2022/02/09 09:07:06;;;;;;;14.13;8.50;;;;;;;;;;5015442;28;20265;-87
2022/02/09 10:31:30;;;;;;;14.73;7.22;;;;;;;;;;5014558;28;20193;-88
2022/02/09 10:33:54;;;;;;;12.90;8.45;;;;;;;;;;5014951;28;20187;-89
2022/02/09 10:36:21;;;;;;;9.90;6.20;;;;;;;;;;5029066;28;20189;-88
2022/02/09 10:38:49;;;;;;;10.00;6.13;;;;;;;;;;5026663;28;20214;-88
2022/02/09 10:41:22;;;;;;;10.98;6.55;;;;;;;;;;5024347;28;20668;-88
2022/02/09 10:43:48;;;;;;;14.45;6.25;;;;;;;;;;5039326;28;20195;-90
2022/02/09 10:46:14;;;;;;;12.30;5.82;;;;;;;;;;5012230;28;20194;-89
2022/02/09 10:48:49;;;;;;;12.00;5.07;;;;;;;;;;5015454;28;20187;-89
2022/02/09 10:54:16;;;;;;;8.15;4.75;;;;;;;;;;5009557;28;20191;-87
2022/02/09 10:56:44;;;;;;;12.30;4.10;;;;;;;;;;5009040;28;20182;-87
2022/02/09 10:59:11;;;;;;;7.97;4.10;;;;;;;;;;5006787;28;20201;-87
2022/02/09 11:01:38;;;;;;;5.55;4.47;;;;;;;;;;5022481;28;20258;-88
2022/02/09 11:04:04;;;;;;;7.35;4.50;;;;;;;;;;5028812;28;20179;-88
2022/02/09 11:06:35;;;;;;;9.00;4.50;;;;;;;;;;5014038;28;20175;-88
2022/02/09 11:09:02;;;;;;;6.97;3.95;;;;;;;;;;5024261;28;20217;-88
2022/02/09 11:11:29;;;;;;;7.47;4.70;;;;;;;;;;5024414;28;20224;-88
2022/02/09 11:13:55;;;;;;;9.10;4.88;;;;;;;;;;5006324;28;20167;-89
2022/02/09 11:16:23;;;;;;;6.88;3.85;;;;;;;;;;5024599;28;20634;-87
2022/02/09 11:18:50;;;;;;;6.70;4.40;;;;;;;;;;5010224;28;20269;-83
2022/02/09 11:21:16;;;;;;;6.45;3.80;;;;;;;;;;5047360;28;20245;-86
2022/02/09 11:23:48;;;;;;;8.73;4.55;;;;;;;;;;5021556;28;20179;-85
2022/02/09 11:26:45;;;;;;;10.32;4.57;;;;;;;;;;5006630;28;20167;-82
2022/02/09 11:29:20;;;;;;;5.38;3.60;;;;;;;;;;5021481;28;20181;-85
2022/02/09 11:35:08;;;;;;;10.52;4.07;;;;;;;;;;5020228;28;20182;-89
2022/02/09 11:37:53;;;;;;;8.65;4.57;;;;;;;;;;5022935;28;20193;-90
2022/02/09 11:40:30;;;;;;;15.00;4.93;;;;;;;;;;5037824;28;20193;-87
2022/02/09 11:43:05;;;;;;;13.23;4.80;;;;;;;;;;5018755;28;20203;-88
2022/02/09 11:46:21;;;;;;;4.82;3.60;;;;;;;;;;5026536;28;20174;-89
2022/02/09 12:11:27;;;;;;;13.00;5.30;;;;;;;;;;4982007;28;20194;-83
2022/02/09 12:14:01;;;;;;;13.30;5.43;;;;;;;;;;4979697;28;20219;-87
2022/02/09 12:19:24;;;;;;;10.85;5.25;;;;;;;;;;4978764;28;20223;-88
2022/02/09 12:24:23;;;;;;;8.07;5.07;;;;;;;;;;4980158;28;20192;-85
2022/02/09 12:26:53;;;;;;;11.18;5.40;;;;;;;;;;4976960;28;20219;-87
2022/02/09 12:29:19;;;;;;;11.45;6.32;;;;;;;;;;4996320;28;20812;-89
2022/02/09 12:31:45;;;;;;;8.88;4.43;;;;;;;;;;5005976;28;20241;-85
2022/02/09 12:34:21;;;;;;;5.82;4.45;;;;;;;;;;5018113;28;20293;-86
2022/02/09 12:36:47;;;;;;;6.47;4.03;;;;;;;;;;5022659;28;20184;-86
2022/02/09 12:39:15;;;;;;;9.77;4.32;;;;;;;;;;5028965;28;20223;-89
2022/02/09 12:41:41;;;;;;;8.98;4.65;;;;;;;;;;5024047;28;20232;-90
2022/02/09 12:44:07;;;;;;;6.22;4.88;;;;;;;;;;5021905;28;20175;-83
2022/02/09 12:46:35;;;;;;;7.90;4.88;;;;;;;;;;5029874;28;20206;-87
2022/02/09 12:49:05;;;;;;;7.72;5.10;;;;;;;;;;5019568;28;20186;-89
2022/02/09 12:51:31;;;;;;;9.32;4.65;;;;;;;;;;5043897;28;20190;-88
2022/02/09 12:53:57;;;;;;;8.18;4.75;;;;;;;;;;5030475;28;20261;-91
2022/02/09 12:56:25;;;;;;;9.65;4.05;;;;;;;;;;5012073;28;20194;-87
2022/02/09 12:58:58;;;;;;;8.52;4.85;;;;;;;;;;5024030;28;20175;-87
2022/02/09 13:01:24;;;;;;;6.30;4.78;;;;;;;;;;5033772;28;20201;-89
2022/02/09 13:03:50;;;;;;;11.25;5.10;;;;;;;;;;5033691;28;20182;-85
2022/02/09 13:06:16;;;;;;;10.80;4.17;;;;;;;;;;5020876;28;20670;-83
2022/02/09 13:08:50;;;;;;;6.30;4.80;;;;;;;;;;5007158;28;20463;-84
2022/02/09 13:11:37;;;;;;;5.28;3.50;;;;;;;;;;5025603;28;20409;-84
2022/02/09 13:14:09;;;;;;;5.72;4.32;;;;;;;;;;5022932;28;20178;-84
2022/02/09 13:16:56;;;;;;;8.15;4.03;;;;;;;;;;5029675;28;20227;-85
2022/02/09 13:25:27;;;;;;;8.02;3.65;;;;;;;;;;5017288;28;20438;-85
2022/02/09 14:02:44;;;;;;;15.15;10.48;;;;;;;;;;5009434;28;20822;-85
2022/02/09 14:06:25;;;;;;;18.90;11.93;;;;;;;;;;5033754;28;20617;-83
2022/02/09 14:56:51;;;;;;;7.50;5.60;;;;;;;;;;5007586;28;20437;-85
2022/02/09 15:00:07;;;;;;;5.23;4.43;;;;;;;;;;5029056;28;20423;-85
2022/02/09 15:02:08;;;;;;;10.27;5.87;;;;;;;;;;5013992;28;20740;-84
2022/02/09 15:07:29;;;;;;;9.90;6.57;;;;;;;;;;5018779;28;20447;-86
2022/02/09 15:10:07;;;;;;;7.40;5.70;;;;;;;;;;5024720;28;20458;-84
2022/02/09 15:12:53;;;;;;;5.83;4.50;;;;;;;;;;5019808;28;20529;-84
2022/02/09 15:21:02;;;;;;;9.45;4.50;;;;;;;;;;5002142;28;20200;-83
2022/02/09 15:23:29;;;;;;;9.38;4.40;;;;;;;;;;4985208;28;20210;-84
2022/02/09 15:25:59;;;;;;;6.40;4.28;;;;;;;;;;5002467;28;20238;-84
2022/02/09 15:28:25;;;;;;;5.82;4.40;;;;;;;;;;4979606;28;20195;-87
2022/02/09 15:31:40;;;;;;;10.82;5.28;;;;;;;;;;4985750;28;20237;-83
2022/02/09 15:33:48;;;;;;;7.43;4.75;;;;;;;;;;4993717;28;20186;-83
2022/02/09 15:36:17;;;;;;;10.10;5.65;;;;;;;;;;4985481;28;20197;-83
2022/02/09 15:38:46;;;;;;;16.08;6.38;;;;;;;;;;5000935;28;20218;-84
2022/02/09 15:41:32;;;;;;;7.53;4.90;;;;;;;;;;4985572;28;20185;-84
2022/02/09 16:37:26;;;;;;;7.57;3.90;;;;;;;;;;5020051;28;20624;-85
2022/02/09 16:45:19;;;;;;;6.82;3.70;;;;;;;;;;5012187;28;20202;-84
2022/02/09 16:48:03;;;;;;;6.70;5.47;;;;;;;;;;5020612;28;20210;-90
2022/02/09 16:50:39;;;;;;;6.30;4.30;;;;;;;;;;5014326;28;20508;-81
2022/02/09 16:53:20;;;;;;;5.97;3.55;;;;;;;;;;5049508;28;20497;-81
2022/02/09 17:20:20;;;;;;;8.18;4.20;;;;;;;;;;5025433;28;20177;-81
2022/02/09 17:22:46;;;;;;;11.02;3.90;;;;;;;;;;5019773;28;20203;-81
2022/02/09 17:25:12;;;;;;;7.50;4.03;;;;;;;;;;5047865;28;20559;-81
2022/02/09 17:27:42;;;;;;;8.33;4.73;;;;;;;;;;5013939;28;20622;-82
2022/02/09 17:30:34;;;;;;;6.40;4.82;;;;;;;;;;5024935;28;20440;-82
2022/02/09 17:33:09;;;;;;;8.85;5.50;;;;;;;;;;5015974;28;20273;-82
2022/02/09 17:35:45;;;;;;;13.27;6.78;;;;;;;;;;5041071;28;20260;-83
2022/02/09 17:38:26;;;;;;;10.38;6.18;;;;;;;;;;5026329;28;20233;-81
2022/02/09 17:57:03;;;;;;;13.00;8.50;;;;;;;;;;5013595;28;20217;-80
2022/02/09 17:59:31;;;;;;;12.20;9.30;;;;;;;;;;5024670;28;20981;-80
2022/02/09 18:01:57;;;;;;;13.30;10.13;;;;;;;;;;5020994;28;20197;-80
2022/02/09 18:04:24;;;;;;;12.05;9.40;;;;;;;;;;5034404;28;20265;-79
2022/02/09 18:07:05;;;;;;;13.93;10.15;;;;;;;;;;5024561;28;20182;-79
2022/02/09 18:09:38;;;;;;;13.63;10.07;;;;;;;;;;5023596;28;20254;-80
2022/02/09 18:12:19;;;;;;;16.92;9.70;;;;;;;;;;5047638;28;20217;-80
2022/02/09 18:31:43;;;;;;;16.58;10.30;;;;;;;;;;4925236;29;20189;-80
2022/02/09 19:03:38;;;;;;;26.30;19.02;;;;;;;;;;5020839;28;20241;-81
2022/02/09 19:06:16;;;;;;;24.20;17.38;;;;;;;;;;5000432;28;20648;-81
2022/02/09 19:28:03;;;;;;;22.30;14.52;;;;;;;;;;5019354;28;20193;-80
2022/02/09 19:30:05;;;;;;;19.92;13.15;;;;;;;;;;5016941;28;20250;-80
2022/02/09 19:32:59;;;;;;;17.83;13.27;;;;;;;;;;5031197;28;20210;-79
2022/02/09 19:48:42;;;;;;;23.00;16.48;;;;;;;;;;5018560;28;20202;-81
2022/02/09 19:51:31;;;;;;;21.40;15.07;;;;;;;;;;5043532;28;20187;-80
2022/02/09 19:54:09;;;;;;;20.13;14.30;;;;;;;;;;5048018;28;20183;-80
2022/02/09 19:56:37;;;;;;;25.42;16.17;;;;;;;;;;5039420;28;20201;-80
2022/02/09 19:59:13;;;;;;;23.98;17.60;;;;;;;;;;5055290;28;20182;-79
2022/02/09 20:01:40;;;;;;;27.55;19.40;;;;;;;;;;5010897;28;20177;-79
2022/02/09 20:04:07;;;;;;;27.77;17.95;;;;;;;;;;5011775;28;20239;-79
2022/02/09 20:06:33;;;;;;;28.80;17.42;;;;;;;;;;5043929;28;20190;-79
2022/02/09 20:09:02;;;;;;;21.88;17.27;;;;;;;;;;5008081;28;20183;-79
2022/02/09 20:11:28;;;;;;;23.42;17.13;;;;;;;;;;5015010;28;20312;-79
2022/02/09 20:13:54;;;;;;;20.70;16.33;;;;;;;;;;5051262;28;20237;-79
2022/02/09 20:16:22;;;;;;;24.88;17.58;;;;;;;;;;5038202;28;20194;-79
2022/02/09 20:18:48;;;;;;;18.27;15.60;;;;;;;;;;5044618;28;20187;-78
2022/02/09 20:21:14;;;;;;;19.42;16.33;;;;;;;;;;5007402;28;20270;-79
2022/02/09 20:23:40;;;;;;;29.02;18.10;;;;;;;;;;5024769;28;20202;-79
2022/02/09 20:26:09;;;;;;;28.40;18.17;;;;;;;;;;5019547;28;20190;-79
2022/02/09 20:28:38;;;;;;;26.20;20.20;;;;;;;;;;5037135;28;20221;-79
2022/02/09 20:31:09;;;;;;;33.30;23.20;;;;;;;;;;5022510;28;20184;-79
2022/02/09 20:33:41;;;;;;;38.33;26.60;;;;;;;;;;5028066;28;20214;-79
2022/02/09 20:36:09;;;;;;;35.88;24.65;;;;;;;;;;5022116;28;20187;-78
2022/02/09 20:38:36;;;;;;;31.98;24.00;;;;;;;;;;5026599;28;20226;-79
2022/02/09 20:41:07;;;;;;;32.22;22.95;;;;;;;;;;5023128;28;20218;-79
2022/02/09 20:43:39;;;;;;;33.10;21.42;;;;;;;;;;5058745;28;20491;-78
2022/02/09 20:46:07;;;;;;;28.35;20.73;;;;;;;;;;5012413;28;20185;-79
2022/02/09 20:48:33;;;;;;;33.30;22.13;;;;;;;;;;5022713;28;20209;-79
2022/02/09 20:51:01;;;;;;;26.42;21.23;;;;;;;;;;5010752;28;20184;-79
2022/02/09 20:53:27;;;;;;;24.20;19.35;;;;;;;;;;5025215;28;20178;-78
2022/02/09 20:55:53;;;;;;;25.67;20.13;;;;;;;;;;5042401;28;20686;-78
2022/02/09 20:58:20;;;;;;;31.45;22.23;;;;;;;;;;5054824;28;20197;-80
2022/02/09 21:11:23;;;;;;;31.00;22.75;;;;;;;;;;5033199;28;20174;-79
2022/02/09 21:56:30;;;;;;;19.80;14.77;;;;;;;;;;5015610;28;20204;-79
2022/02/09 22:06:12;;;;;;;21.35;14.88;;;;;;;;;;5019309;28;20246;-79
2022/02/09 22:26:32;;;;;;;24.23;16.70;;;;;;;;;;5038884;28;20193;-79
2022/02/09 22:29:03;;;;;;;26.38;17.77;;;;;;;;;;5042531;28;20181;-78
2022/02/09 22:31:51;;;;;;;25.40;15.52;;;;;;;;;;5047152;28;20181;-79
2022/02/09 22:50:56;;;;;;;19.42;14.93;;;;;;;;;;5030100;28;20190;-80
2022/02/09 22:56:08;;;;;;;21.42;16.00;;;;;;;;;;5036542;28;20232;-79
2022/02/09 22:58:34;;;;;;;22.25;15.88;;;;;;;;;;5018735;28;20182;-80
2022/02/09 23:01:08;;;;;;;24.95;15.95;;;;;;;;;;5039934;28;20209;-80
2022/02/09 23:04:14;;;;;;;25.52;16.42;;;;;;;;;;5032164;28;20210;-80
2022/02/09 23:25:15;;;;;;;19.40;14.80;;;;;;;;;;5016759;28;20269;-80
2022/02/09 23:55:29;;;;;;;21.20;15.98;;;;;;;;;;5022001;28;20256;-80
